American Spirit — WCX2417 — position and weather

sailwx.info

Track history (hours):
 
Tides and Currents Weather Stations Pressure Air Temp Water Temp Dewpoint Dewpoint Depression Visibility Wind Speed Wind Dir Waves Ship Positions

American Spirit

Owner: AMERICAN STEAMSHIP COMPANY, WILLIAMSVILLE, NY. More information available from US FCC via Universal Licensing System and Coast Guard Vessel Documentation Center.

Last reported at 2018-May-20 15:25 UTC. Time now 2018-May-21 14:52 UTC.
Position N 46°55' W 091°32'.

Length 302 m; draft 8.6 m.

Type: Cargo ship. MMSI: 366930730.

Date/timePositionNaut miles runAvg speedWind from/ knotsBaromVisibWave heightAir tempDewpointWater temp
2018-May-20 15:25N 46°55' W 091°32'511.8
2018-May-20 15:00N 46°53' W 091°38'611.9
2018-May-20 14:30N 46°49' W 091°46'611.9
2018-May-20 14:00N 46°46' W 091°53'611.4
2018-May-20 13:30N 46°43' W 091°60'1 2.4
2018-May-20 13:00N 46°42' W 092°01'0 0.3
2018-May-20 12:29N 46°42' W 092°01'0 0.0
2018-May-20 12:00N 46°42' W 092°01'0 0.0
2018-May-20 11:31N 46°42' W 092°01'0 0.0
2018-May-20 11:01N 46°42' W 092°01'0 0.0
2018-May-20 10:30N 46°42' W 092°01'0 0.0
2018-May-20 10:00N 46°42' W 092°01'0 0.0
2018-May-20 09:31N 46°42' W 092°01'0 0.0
2018-May-20 09:01N 46°42' W 092°01'0 0.0
2018-May-20 08:30N 46°42' W 092°01'0 0.0
2018-May-20 08:01N 46°42' W 092°01'0 0.0
2018-May-20 07:31N 46°42' W 092°01'0 0.0
2018-May-20 07:00N 46°42' W 092°01'0 0.0
2018-May-20 06:30N 46°42' W 092°01'0 0.0
2018-May-20 06:01N 46°42' W 092°01'0 0.0
2018-May-20 05:31N 46°42' W 092°01'0 0.0
2018-May-20 05:01N 46°42' W 092°01'0 0.0
2018-May-20 04:31N 46°42' W 092°01'0 0.0
2018-May-20 04:01N 46°42' W 092°01'0 0.0
2018-May-20 03:30N 46°42' W 092°01'0 0.0
2018-May-20 03:01N 46°42' W 092°01'0 0.0
2018-May-20 02:30N 46°42' W 092°01'0 0.0
2018-May-20 02:00N 46°42' W 092°01'0 0.0
2018-May-20 01:31N 46°42' W 092°01'0 0.0
2018-May-20 01:00N 46°42' W 092°01'0 0.0
2018-May-20 00:30N 46°42' W 092°01'0 0.0
2018-May-20 00:01N 46°42' W 092°01'0 0.0
2018-May-19 23:31N 46°42' W 092°01'1 1.2
2018-May-19 23:01N 46°42' W 092°01'1 2.2
2018-May-19 22:30N 46°43' W 091°59'4 7.5
2018-May-19 22:00N 46°45' W 091°55'612.4
2018-May-19 21:30N 46°48' W 091°46'612.4
2018-May-19 21:00N 46°50' W 091°38'319 9.1
2018-May-18 09:45N 45°53' W 084°04'312.6
2018-May-18 09:30N 45°51' W 084°08'1412.4
2018-May-18 08:23N 45°51' W 084°28'512.6
2018-May-18 08:00N 45°51' W 084°35'611.6
2018-May-18 07:30N 45°49' W 084°43'612.3
2018-May-18 07:00N 45°50' W 084°51'612.4
2018-May-18 06:30N 45°50' W 085°00'612.5
2018-May-18 06:00N 45°51' W 085°09'612.5
2018-May-18 05:31N 45°52' W 085°18'612.5
2018-May-18 05:00N 45°53' W 085°27'612.1
2018-May-18 04:31N 45°53' W 085°36'612.4
2018-May-18 04:00N 45°50' W 085°44'612.4
2018-May-18 03:30N 45°48' W 085°52'1012.5
2018-May-18 02:43N 45°40' W 086°01'312.8
2018-May-18 02:30N 45°38' W 086°04'14212.3
2018-May-17 15:00N 43°30' W 087°30'30 0.8 010 / 251018.610.8 4.4
2018-May-16 03:00N 43°06' W 087°06'14911.5 360 / 151017.210.8 6.6
2018-May-15 14:01N 45°30' W 086°11'112.1
2018-May-15 13:59N 45°30' W 086°11'612.0
2018-May-15 13:30N 45°35' W 086°09'611.6
2018-May-15 13:00N 45°41' W 086°06'611.9
2018-May-15 12:30N 45°44' W 085°59'611.9
2018-May-15 12:01N 45°47' W 085°51'611.8
2018-May-15 11:31N 45°50' W 085°44'611.7
2018-May-15 11:00N 45°52' W 085°37'611.1
2018-May-15 10:31N 45°54' W 085°29'611.5
2018-May-15 10:00N 45°53' W 085°21'611.6
2018-May-15 09:31N 45°52' W 085°12'611.6
2018-May-15 09:01N 45°51' W 085°04'611.7
2018-May-15 08:30N 45°50' W 084°56'611.7
2018-May-15 08:01N 45°49' W 084°48'611.3
2018-May-15 07:31N 45°50' W 084°39'510.4
2018-May-15 07:01N 45°51' W 084°32'611.8
2018-May-15 06:30N 45°52' W 084°24'1211.7
2018-May-15 05:30N 45°54' W 084°07'14 6.3
2018-May-15 03:12N 46°08' W 084°01'2 9.4
2018-May-15 02:57N 46°09' W 084°03'5 9.8
2018-May-15 02:26N 46°12' W 084°09'97 7.8
2018-May-14 14:00N 47°06' W 086°06'10111.2 310 / 101010.4 5.5
2018-May-14 05:00N 47°30' W 088°30'13211.8 250 / 231009.810.8 9.9
2018-May-13 17:46N 47°00' W 091°40'1 3.4
2018-May-13 17:30N 47°01' W 091°40'0 0.2
2018-May-13 17:01N 47°01' W 091°40'0 0.0
2018-May-13 16:30N 47°01' W 091°40'0 0.0
2018-May-13 16:00N 47°01' W 091°40'0 0.0
2018-May-13 14:49N 47°01' W 091°40'0 0.0
2018-May-13 11:17N 47°01' W 091°40'0 0.0
2018-May-13 11:00N 47°01' W 091°40'0 0.0
2018-May-13 10:30N 47°01' W 091°40'0 0.0
2018-May-13 10:00N 47°01' W 091°40'0 0.0
2018-May-13 09:30N 47°01' W 091°40'0 0.0
2018-May-13 08:58N 47°01' W 091°40'0 0.0
2018-May-13 08:28N 47°01' W 091°40'0 0.0
2018-May-13 08:00N 47°01' W 091°40'0 0.0
2018-May-13 07:30N 47°01' W 091°40'0 0.0
2018-May-13 07:00N 47°01' W 091°40'0 0.0
2018-May-13 05:06N 47°01' W 091°40'0 0.0
2018-May-13 05:00N 47°01' W 091°40'0 0.0
2018-May-13 04:24N 47°01' W 091°40'0 0.0
2018-May-13 03:58N 47°01' W 091°40'0 0.0
2018-May-13 03:30N 47°01' W 091°40'0 0.0
2018-May-13 03:00N 47°01' W 091°40'0 0.4
2018-May-13 02:31N 47°01' W 091°40'1 1.2
2018-May-13 02:01N 47°00' W 091°40'2 3.3
2018-May-13 01:30N 47°00' W 091°38'611.8
2018-May-13 01:00N 47°02' W 091°30'612.8
2018-May-13 00:30N 47°03' W 091°20'32710.2
2018-May-11 16:30N 45°42' W 083°40'713.1
2018-May-11 16:00N 45°36' W 083°35'613.1
2018-May-11 15:31N 45°31' W 083°30'713.1
2018-May-11 15:00N 45°26' W 083°24'1211.4
2018-May-11 14:00N 45°18' W 083°12'   090 / 131024.010.8 2.2
Track history (hours):
 
Tides and Currents Weather Stations Pressure Air Temp Water Temp Dewpoint Dewpoint Depression Visibility Wind Speed Wind Dir Waves Ship Positions

American Spirit

Owner: AMERICAN STEAMSHIP COMPANY, WILLIAMSVILLE, NY. More information available from US FCC via Universal Licensing System and Coast Guard Vessel Documentation Center.

Last reported at 2018-May-20 15:25 UTC. Time now 2018-May-21 14:52 UTC.
Position N 46°55' W 091°32'.

Length 302 m; draft 8.6 m.

Type: Cargo ship. MMSI: 366930730.

Date/timePositionNaut miles runAvg speedWind from/ knotsBaromVisibWave heightAir tempDewpointWater temp
2018-May-20 15:25N 46°55' W 091°32'511.8
2018-May-20 15:00N 46°53' W 091°38'611.9
2018-May-20 14:30N 46°49' W 091°46'611.9
2018-May-20 14:00N 46°46' W 091°53'611.4
2018-May-20 13:30N 46°43' W 091°60'1 2.4
2018-May-20 13:00N 46°42' W 092°01'0 0.3
2018-May-20 12:29N 46°42' W 092°01'0 0.0
2018-May-20 12:00N 46°42' W 092°01'0 0.0
2018-May-20 11:31N 46°42' W 092°01'0 0.0
2018-May-20 11:01N 46°42' W 092°01'0 0.0
2018-May-20 10:30N 46°42' W 092°01'0 0.0
2018-May-20 10:00N 46°42' W 092°01'0 0.0
2018-May-20 09:31N 46°42' W 092°01'0 0.0
2018-May-20 09:01N 46°42' W 092°01'0 0.0
2018-May-20 08:30N 46°42' W 092°01'0 0.0
2018-May-20 08:01N 46°42' W 092°01'0 0.0
2018-May-20 07:31N 46°42' W 092°01'0 0.0
2018-May-20 07:00N 46°42' W 092°01'0 0.0
2018-May-20 06:30N 46°42' W 092°01'0 0.0
2018-May-20 06:01N 46°42' W 092°01'0 0.0
2018-May-20 05:31N 46°42' W 092°01'0 0.0
2018-May-20 05:01N 46°42' W 092°01'0 0.0
2018-May-20 04:31N 46°42' W 092°01'0 0.0
2018-May-20 04:01N 46°42' W 092°01'0 0.0
2018-May-20 03:30N 46°42' W 092°01'0 0.0
2018-May-20 03:01N 46°42' W 092°01'0 0.0
2018-May-20 02:30N 46°42' W 092°01'0 0.0
2018-May-20 02:00N 46°42' W 092°01'0 0.0
2018-May-20 01:31N 46°42' W 092°01'0 0.0
2018-May-20 01:00N 46°42' W 092°01'0 0.0
2018-May-20 00:30N 46°42' W 092°01'0 0.0
2018-May-20 00:01N 46°42' W 092°01'0 0.0
2018-May-19 23:31N 46°42' W 092°01'1 1.2
2018-May-19 23:01N 46°42' W 092°01'1 2.2
2018-May-19 22:30N 46°43' W 091°59'4 7.5
2018-May-19 22:00N 46°45' W 091°55'612.4
2018-May-19 21:30N 46°48' W 091°46'612.4
2018-May-19 21:00N 46°50' W 091°38'319 9.1
2018-May-18 09:45N 45°53' W 084°04'312.6
2018-May-18 09:30N 45°51' W 084°08'1412.4
2018-May-18 08:23N 45°51' W 084°28'512.6
2018-May-18 08:00N 45°51' W 084°35'611.6
2018-May-18 07:30N 45°49' W 084°43'612.3
2018-May-18 07:00N 45°50' W 084°51'612.4
2018-May-18 06:30N 45°50' W 085°00'612.5
2018-May-18 06:00N 45°51' W 085°09'612.5
2018-May-18 05:31N 45°52' W 085°18'612.5
2018-May-18 05:00N 45°53' W 085°27'612.1
2018-May-18 04:31N 45°53' W 085°36'612.4
2018-May-18 04:00N 45°50' W 085°44'612.4
2018-May-18 03:30N 45°48' W 085°52'1012.5
2018-May-18 02:43N 45°40' W 086°01'312.8
2018-May-18 02:30N 45°38' W 086°04'14212.3
2018-May-17 15:00N 43°30' W 087°30'30 0.8 010 / 251018.610.8 4.4
2018-May-16 03:00N 43°06' W 087°06'14911.5 360 / 151017.210.8 6.6
2018-May-15 14:01N 45°30' W 086°11'112.1
2018-May-15 13:59N 45°30' W 086°11'612.0
2018-May-15 13:30N 45°35' W 086°09'611.6
2018-May-15 13:00N 45°41' W 086°06'611.9
2018-May-15 12:30N 45°44' W 085°59'611.9
2018-May-15 12:01N 45°47' W 085°51'611.8
2018-May-15 11:31N 45°50' W 085°44'611.7
2018-May-15 11:00N 45°52' W 085°37'611.1
2018-May-15 10:31N 45°54' W 085°29'611.5
2018-May-15 10:00N 45°53' W 085°21'611.6
2018-May-15 09:31N 45°52' W 085°12'611.6
2018-May-15 09:01N 45°51' W 085°04'611.7
2018-May-15 08:30N 45°50' W 084°56'611.7
2018-May-15 08:01N 45°49' W 084°48'611.3
2018-May-15 07:31N 45°50' W 084°39'510.4
2018-May-15 07:01N 45°51' W 084°32'611.8
2018-May-15 06:30N 45°52' W 084°24'1211.7
2018-May-15 05:30N 45°54' W 084°07'14 6.3
2018-May-15 03:12N 46°08' W 084°01'2 9.4
2018-May-15 02:57N 46°09' W 084°03'5 9.8
2018-May-15 02:26N 46°12' W 084°09'97 7.8
2018-May-14 14:00N 47°06' W 086°06'10111.2 310 / 101010.4 5.5
2018-May-14 05:00N 47°30' W 088°30'13211.8 250 / 231009.810.8 9.9
2018-May-13 17:46N 47°00' W 091°40'1 3.4
2018-May-13 17:30N 47°01' W 091°40'0 0.2
2018-May-13 17:01N 47°01' W 091°40'0 0.0
2018-May-13 16:30N 47°01' W 091°40'0 0.0
2018-May-13 16:00N 47°01' W 091°40'0 0.0
2018-May-13 14:49N 47°01' W 091°40'0 0.0
2018-May-13 11:17N 47°01' W 091°40'0 0.0
2018-May-13 11:00N 47°01' W 091°40'0 0.0
2018-May-13 10:30N 47°01' W 091°40'0 0.0
2018-May-13 10:00N 47°01' W 091°40'0 0.0
2018-May-13 09:30N 47°01' W 091°40'0 0.0
2018-May-13 08:58N 47°01' W 091°40'0 0.0
2018-May-13 08:28N 47°01' W 091°40'0 0.0
2018-May-13 08:00N 47°01' W 091°40'0 0.0
2018-May-13 07:30N 47°01' W 091°40'0 0.0
2018-May-13 07:00N 47°01' W 091°40'0 0.0
2018-May-13 05:06N 47°01' W 091°40'0 0.0
2018-May-13 05:00N 47°01' W 091°40'0 0.0
2018-May-13 04:24N 47°01' W 091°40'0 0.0
2018-May-13 03:58N 47°01' W 091°40'0 0.0
2018-May-13 03:30N 47°01' W 091°40'0 0.0
2018-May-13 03:00N 47°01' W 091°40'0 0.4
2018-May-13 02:31N 47°01' W 091°40'1 1.2
2018-May-13 02:01N 47°00' W 091°40'2 3.3
2018-May-13 01:30N 47°00' W 091°38'611.8
2018-May-13 01:00N 47°02' W 091°30'612.8
2018-May-13 00:30N 47°03' W 091°20'32710.2
2018-May-11 16:30N 45°42' W 083°40'713.1
2018-May-11 16:00N 45°36' W 083°35'613.1
2018-May-11 15:31N 45°31' W 083°30'713.1
2018-May-11 15:00N 45°26' W 083°24'1211.4
2018-May-11 14:00N 45°18' W 083°12'   090 / 131024.010.8 2.2

Dump ship's entire track history